This is the latest recevied weather packets stored in our database for station/object DH1NAI-6. If no packets are shown the sender has not sent any weather packets the latest 10 day(s).
| Time | Temp. | Humidity | Pressure | Rain* | Wind** | Luminosity | Snow |
|---|---|---|---|---|---|---|---|
| 1787487719 | 17.78° C | 62% | 1020.2 hPa | 0 mm | - | 180 W/m² | - |
| 1787487112 | 18.33° C | 59% | 1020.5 hPa | 0 mm | - | 208 W/m² | - |
| 1787486503 | 17.22° C | 63% | 1020.4 hPa | 0 mm | - | 78 W/m² | - |
| 1787485895 | 17.78° C | 61% | 1020.4 hPa | 0 mm | - | 93 W/m² | - |
| 1787485287 | 16.67° C | 65% | 1020.3 hPa | 0 mm | - | 211 W/m² | - |
| 1787484680 | 17.22° C | 66% | 1020.6 hPa | 0 mm | - | 195 W/m² | - |
| 1787484071 | 17.22° C | 66% | 1020.5 hPa | 0 mm | - | 221 W/m² | - |
| 1787483464 | 16.11° C | 67% | 1020.7 hPa | 0 mm | - | 70 W/m² | - |
| 1787482855 | 17.22° C | 66% | 1020.8 hPa | 0 mm | - | 136 W/m² | - |
| 1787482248 | 16.67° C | 66% | 1020.5 hPa | 0 mm | - | 81 W/m² | - |
| 1787481632 | 16.67° C | 64% | 1020.5 hPa | 0 mm | - | 222 W/m² | - |
| 1787481032 | 17.22° C | 63% | 1020.5 hPa | 0 mm | - | 181 W/m² | - |
| 1787480423 | 16.67° C | 64% | 1020.4 hPa | 0 mm | - | 176 W/m² | - |
| 1787479799 | 16.67° C | 67% | 1020.4 hPa | 0 mm | - | 156 W/m² | - |
| 1787479175 | 16.11° C | 69% | 1020.6 hPa | 0 mm | - | 164 W/m² | - |
| 1787478567 | 16.67° C | 69% | 1020.4 hPa | 0 mm | - | 181 W/m² | - |
| 1787477943 | 16.11° C | 71% | 1020.6 hPa | 0 mm | - | 182 W/m² | - |
| 1787477320 | 15.56° C | 74% | 1020.5 hPa | 0 mm | - | 170 W/m² | - |
| 1787476711 | 15.56° C | 75% | 1020.7 hPa | 0 mm | - | 153 W/m² | - |
| 1787476087 | 15.56° C | 74% | 1020.7 hPa | 0 mm | - | 179 W/m² | - |
| 1787475479 | 15.56° C | 74% | 1020.6 hPa | 0 mm | - | 89 W/m² | - |
| 1787474871 | 15° C | 77% | 1020.8 hPa | 0 mm | - | 61 W/m² | - |
| 1787474263 | 15.56° C | 75% | 1020.6 hPa | 0 mm | - | 120 W/m² | - |
| 1787473655 | 15.56° C | 78% | 1020.6 hPa | 0 mm | - | 140 W/m² | - |
| 1787473047 | 14.44° C | 81% | 1020.5 hPa | 0 mm | - | 149 W/m² | - |
* Rain latest hour (hover to see other rain measurements)
** Current wind speed in m/s (hover to see current wind gust speed)